sensor_id;sensor_type;location;lat;lon;timestamp;P1;durP1;ratioP1;P2;durP2;ratioP2
74510;SDS011;62991;50.040;18.400;2022-09-25T00:02:04;25.33;;;10.50;;
74510;SDS011;62991;50.040;18.400;2022-09-25T00:05:04;18.70;;;9.63;;
74510;SDS011;62991;50.040;18.400;2022-09-25T00:08:06;21.08;;;8.70;;
74510;SDS011;62991;50.040;18.400;2022-09-25T00:11:10;22.33;;;10.23;;
74510;SDS011;62991;50.040;18.400;2022-09-25T00:14:13;25.13;;;10.18;;
74510;SDS011;62991;50.040;18.400;2022-09-25T00:17:13;17.42;;;7.82;;
74510;SDS011;62991;50.040;18.400;2022-09-25T00:20:15;18.92;;;8.88;;
74510;SDS011;62991;50.040;18.400;2022-09-25T00:23:17;21.90;;;8.80;;
74510;SDS011;62991;50.040;18.400;2022-09-25T00:26:17;21.48;;;9.50;;
74510;SDS011;62991;50.040;18.400;2022-09-25T00:29:19;23.23;;;10.48;;
74510;SDS011;62991;50.040;18.400;2022-09-25T00:32:20;22.50;;;10.05;;
74510;SDS011;62991;50.040;18.400;2022-09-25T00:35:20;21.17;;;9.85;;
74510;SDS011;62991;50.040;18.400;2022-09-25T00:38:21;24.05;;;9.95;;
74510;SDS011;62991;50.040;18.400;2022-09-25T00:41:22;21.42;;;9.60;;
74510;SDS011;62991;50.040;18.400;2022-09-25T00:47:58;20.13;;;9.40;;
74510;SDS011;62991;50.040;18.400;2022-09-25T00:51:01;20.35;;;8.82;;
74510;SDS011;62991;50.040;18.400;2022-09-25T00:54:02;21.25;;;9.55;;
74510;SDS011;62991;50.040;18.400;2022-09-25T00:57:06;24.25;;;10.80;;
74510;SDS011;62991;50.040;18.400;2022-09-25T01:00:10;24.13;;;11.10;;
74510;SDS011;62991;50.040;18.400;2022-09-25T01:03:11;23.27;;;11.50;;
74510;SDS011;62991;50.040;18.400;2022-09-25T01:06:13;19.95;;;9.55;;
74510;SDS011;62991;50.040;18.400;2022-09-25T01:09:16;19.05;;;9.52;;
74510;SDS011;62991;50.040;18.400;2022-09-25T01:12:17;23.23;;;10.32;;
74510;SDS011;62991;50.040;18.400;2022-09-25T01:15:19;20.88;;;9.57;;
74510;SDS011;62991;50.040;18.400;2022-09-25T01:21:53;16.73;;;8.68;;
74510;SDS011;62991;50.040;18.400;2022-09-25T01:35:22;13.60;;;6.97;;
74510;SDS011;62991;50.040;18.400;2022-09-25T01:38:37;17.45;;;8.07;;
74510;SDS011;62991;50.040;18.400;2022-09-25T01:45:03;21.75;;;8.30;;
74510;SDS011;62991;50.040;18.400;2022-09-25T01:48:08;14.48;;;6.85;;
74510;SDS011;62991;50.040;18.400;2022-09-25T01:51:20;20.42;;;8.15;;
74510;SDS011;62991;50.040;18.400;2022-09-25T01:54:32;21.23;;;8.18;;
74510;SDS011;62991;50.040;18.400;2022-09-25T01:57:39;22.95;;;7.80;;
74510;SDS011;62991;50.040;18.400;2022-09-25T02:00:45;17.10;;;7.45;;
74510;SDS011;62991;50.040;18.400;2022-09-25T02:04:00;18.75;;;8.13;;
74510;SDS011;62991;50.040;18.400;2022-09-25T02:07:40;17.92;;;7.43;;
74510;SDS011;62991;50.040;18.400;2022-09-25T02:10:48;15.10;;;6.95;;
74510;SDS011;62991;50.040;18.400;2022-09-25T02:14:00;17.63;;;6.47;;
74510;SDS011;62991;50.040;18.400;2022-09-25T02:17:06;15.00;;;6.50;;
74510;SDS011;62991;50.040;18.400;2022-09-25T02:20:10;19.90;;;8.13;;
74510;SDS011;62991;50.040;18.400;2022-09-25T02:26:52;17.17;;;7.43;;
74510;SDS011;62991;50.040;18.400;2022-09-25T02:29:53;15.77;;;7.78;;
74510;SDS011;62991;50.040;18.400;2022-09-25T02:32:55;17.40;;;7.78;;
74510;SDS011;62991;50.040;18.400;2022-09-25T02:35:57;16.90;;;7.28;;
74510;SDS011;62991;50.040;18.400;2022-09-25T02:39:02;17.92;;;7.38;;
74510;SDS011;62991;50.040;18.400;2022-09-25T02:45:36;17.45;;;7.43;;
74510;SDS011;62991;50.040;18.400;2022-09-25T02:48:58;20.80;;;7.55;;
74510;SDS011;62991;50.040;18.400;2022-09-25T02:52:36;16.33;;;7.50;;
74510;SDS011;62991;50.040;18.400;2022-09-25T02:59:13;16.73;;;6.72;;
74510;SDS011;62991;50.040;18.400;2022-09-25T03:02:19;14.27;;;5.85;;
74510;SDS011;62991;50.040;18.400;2022-09-25T03:05:21;15.93;;;6.13;;
74510;SDS011;62991;50.040;18.400;2022-09-25T03:08:24;14.23;;;6.25;;
74510;SDS011;62991;50.040;18.400;2022-09-25T03:11:40;14.05;;;5.82;;
74510;SDS011;62991;50.040;18.400;2022-09-25T03:14:42;12.52;;;6.05;;
74510;SDS011;62991;50.040;18.400;2022-09-25T03:17:43;14.63;;;6.20;;
74510;SDS011;62991;50.040;18.400;2022-09-25T03:20:45;15.55;;;6.55;;
74510;SDS011;62991;50.040;18.400;2022-09-25T03:23:46;14.85;;;6.50;;
74510;SDS011;62991;50.040;18.400;2022-09-25T03:26:46;16.98;;;7.45;;
74510;SDS011;62991;50.040;18.400;2022-09-25T03:29:48;16.67;;;7.50;;
74510;SDS011;62991;50.040;18.400;2022-09-25T03:32:49;16.48;;;6.95;;
74510;SDS011;62991;50.040;18.400;2022-09-25T03:35:58;15.55;;;6.93;;
74510;SDS011;62991;50.040;18.400;2022-09-25T03:39:19;17.33;;;7.72;;
74510;SDS011;62991;50.040;18.400;2022-09-25T03:42:20;15.57;;;7.43;;
74510;SDS011;62991;50.040;18.400;2022-09-25T03:45:21;24.17;;;8.27;;
74510;SDS011;62991;50.040;18.400;2022-09-25T03:48:21;20.02;;;8.23;;
74510;SDS011;62991;50.040;18.400;2022-09-25T03:51:23;20.05;;;8.05;;
74510;SDS011;62991;50.040;18.400;2022-09-25T03:54:25;22.25;;;8.30;;
74510;SDS011;62991;50.040;18.400;2022-09-25T03:57:26;20.40;;;8.45;;
74510;SDS011;62991;50.040;18.400;2022-09-25T04:00:26;23.17;;;8.45;;
74510;SDS011;62991;50.040;18.400;2022-09-25T04:03:28;24.63;;;8.98;;
74510;SDS011;62991;50.040;18.400;2022-09-25T04:06:30;19.00;;;8.45;;
74510;SDS011;62991;50.040;18.400;2022-09-25T04:09:30;23.52;;;8.25;;
74510;SDS011;62991;50.040;18.400;2022-09-25T04:12:31;22.98;;;8.88;;
74510;SDS011;62991;50.040;18.400;2022-09-25T04:15:32;20.83;;;8.40;;
74510;SDS011;62991;50.040;18.400;2022-09-25T04:18:33;21.02;;;7.88;;
74510;SDS011;62991;50.040;18.400;2022-09-25T04:21:34;18.30;;;8.60;;
74510;SDS011;62991;50.040;18.400;2022-09-25T04:24:35;20.75;;;9.63;;
74510;SDS011;62991;50.040;18.400;2022-09-25T04:27:48;18.80;;;8.43;;
74510;SDS011;62991;50.040;18.400;2022-09-25T04:30:49;17.35;;;8.10;;
74510;SDS011;62991;50.040;18.400;2022-09-25T04:33:49;24.77;;;9.95;;
74510;SDS011;62991;50.040;18.400;2022-09-25T04:36:50;17.80;;;9.50;;
74510;SDS011;62991;50.040;18.400;2022-09-25T04:39:54;19.38;;;9.60;;
74510;SDS011;62991;50.040;18.400;2022-09-25T04:42:57;18.20;;;9.95;;
74510;SDS011;62991;50.040;18.400;2022-09-25T04:46:02;18.67;;;9.52;;
74510;SDS011;62991;50.040;18.400;2022-09-25T04:49:05;19.00;;;9.02;;
74510;SDS011;62991;50.040;18.400;2022-09-25T04:52:05;30.95;;;12.48;;
74510;SDS011;62991;50.040;18.400;2022-09-25T04:55:06;20.60;;;10.40;;
74510;SDS011;62991;50.040;18.400;2022-09-25T04:58:07;26.30;;;11.68;;
74510;SDS011;62991;50.040;18.400;2022-09-25T05:01:09;20.85;;;10.02;;
74510;SDS011;62991;50.040;18.400;2022-09-25T05:04:10;22.60;;;9.60;;
74510;SDS011;62991;50.040;18.400;2022-09-25T05:07:10;26.02;;;11.25;;
74510;SDS011;62991;50.040;18.400;2022-09-25T05:10:11;30.90;;;11.65;;
74510;SDS011;62991;50.040;18.400;2022-09-25T05:13:13;33.85;;;12.65;;
74510;SDS011;62991;50.040;18.400;2022-09-25T05:16:14;28.73;;;12.40;;
74510;SDS011;62991;50.040;18.400;2022-09-25T05:19:15;26.92;;;11.70;;
74510;SDS011;62991;50.040;18.400;2022-09-25T05:22:16;21.48;;;9.65;;
74510;SDS011;62991;50.040;18.400;2022-09-25T05:25:16;20.33;;;9.38;;
74510;SDS011;62991;50.040;18.400;2022-09-25T05:28:17;17.98;;;8.07;;
74510;SDS011;62991;50.040;18.400;2022-09-25T05:31:18;19.77;;;9.77;;
74510;SDS011;62991;50.040;18.400;2022-09-25T05:34:19;20.80;;;10.57;;
74510;SDS011;62991;50.040;18.400;2022-09-25T05:37:20;22.27;;;10.45;;
74510;SDS011;62991;50.040;18.400;2022-09-25T05:40:20;20.08;;;9.43;;
74510;SDS011;62991;50.040;18.400;2022-09-25T05:43:22;16.70;;;8.38;;
74510;SDS011;62991;50.040;18.400;2022-09-25T05:46:25;19.88;;;8.73;;
74510;SDS011;62991;50.040;18.400;2022-09-25T05:49:26;27.17;;;10.25;;
74510;SDS011;62991;50.040;18.400;2022-09-25T05:52:27;44.53;;;16.42;;
74510;SDS011;62991;50.040;18.400;2022-09-25T05:55:29;40.70;;;15.07;;
74510;SDS011;62991;50.040;18.400;2022-09-25T05:58:30;29.58;;;12.32;;
74510;SDS011;62991;50.040;18.400;2022-09-25T06:01:35;19.17;;;8.40;;
74510;SDS011;62991;50.040;18.400;2022-09-25T06:04:35;17.45;;;7.65;;
74510;SDS011;62991;50.040;18.400;2022-09-25T06:07:36;18.73;;;8.25;;
74510;SDS011;62991;50.040;18.400;2022-09-25T06:10:37;15.57;;;7.68;;
74510;SDS011;62991;50.040;18.400;2022-09-25T06:13:38;15.10;;;7.40;;
74510;SDS011;62991;50.040;18.400;2022-09-25T06:16:40;16.65;;;8.60;;
74510;SDS011;62991;50.040;18.400;2022-09-25T06:19:40;15.82;;;8.48;;
74510;SDS011;62991;50.040;18.400;2022-09-25T06:22:41;17.77;;;7.55;;
74510;SDS011;62991;50.040;18.400;2022-09-25T06:25:45;14.60;;;7.53;;
74510;SDS011;62991;50.040;18.400;2022-09-25T06:28:46;13.60;;;7.68;;
74510;SDS011;62991;50.040;18.400;2022-09-25T06:31:46;14.98;;;8.10;;
74510;SDS011;62991;50.040;18.400;2022-09-25T06:34:47;18.88;;;8.05;;
74510;SDS011;62991;50.040;18.400;2022-09-25T06:37:48;18.40;;;9.57;;
74510;SDS011;62991;50.040;18.400;2022-09-25T06:40:48;17.60;;;9.10;;
74510;SDS011;62991;50.040;18.400;2022-09-25T06:43:50;18.02;;;9.00;;
74510;SDS011;62991;50.040;18.400;2022-09-25T06:46:51;22.15;;;10.05;;
74510;SDS011;62991;50.040;18.400;2022-09-25T06:49:53;18.10;;;10.05;;
74510;SDS011;62991;50.040;18.400;2022-09-25T06:52:54;18.40;;;9.30;;
74510;SDS011;62991;50.040;18.400;2022-09-25T06:55:55;18.63;;;9.10;;
74510;SDS011;62991;50.040;18.400;2022-09-25T06:58:57;22.95;;;10.23;;
74510;SDS011;62991;50.040;18.400;2022-09-25T07:01:58;19.35;;;9.80;;
74510;SDS011;62991;50.040;18.400;2022-09-25T07:05:19;20.08;;;9.45;;
74510;SDS011;62991;50.040;18.400;2022-09-25T07:08:19;21.23;;;10.82;;
74510;SDS011;62991;50.040;18.400;2022-09-25T07:11:21;29.15;;;12.35;;
74510;SDS011;62991;50.040;18.400;2022-09-25T07:14:23;24.00;;;11.18;;
74510;SDS011;62991;50.040;18.400;2022-09-25T07:17:24;22.50;;;11.55;;
74510;SDS011;62991;50.040;18.400;2022-09-25T07:20:25;22.63;;;9.77;;
74510;SDS011;62991;50.040;18.400;2022-09-25T07:23:26;22.90;;;10.45;;
74510;SDS011;62991;50.040;18.400;2022-09-25T07:26:28;17.73;;;8.68;;
74510;SDS011;62991;50.040;18.400;2022-09-25T07:29:32;20.48;;;9.27;;
74510;SDS011;62991;50.040;18.400;2022-09-25T07:32:34;53.05;;;24.45;;
74510;SDS011;62991;50.040;18.400;2022-09-25T07:35:35;36.83;;;15.73;;
74510;SDS011;62991;50.040;18.400;2022-09-25T07:38:37;19.30;;;8.68;;
74510;SDS011;62991;50.040;18.400;2022-09-25T07:41:38;17.67;;;9.02;;
74510;SDS011;62991;50.040;18.400;2022-09-25T07:44:39;16.60;;;8.73;;
74510;SDS011;62991;50.040;18.400;2022-09-25T07:47:39;22.13;;;10.60;;
74510;SDS011;62991;50.040;18.400;2022-09-25T07:50:40;19.33;;;8.73;;
74510;SDS011;62991;50.040;18.400;2022-09-25T07:53:41;14.27;;;7.68;;
74510;SDS011;62991;50.040;18.400;2022-09-25T07:56:43;12.98;;;6.75;;
74510;SDS011;62991;50.040;18.400;2022-09-25T07:59:43;17.02;;;7.57;;
74510;SDS011;62991;50.040;18.400;2022-09-25T08:02:44;14.07;;;6.35;;
74510;SDS011;62991;50.040;18.400;2022-09-25T08:06:01;13.32;;;6.75;;
74510;SDS011;62991;50.040;18.400;2022-09-25T08:09:10;11.95;;;6.13;;
74510;SDS011;62991;50.040;18.400;2022-09-25T08:12:11;11.20;;;6.10;;
74510;SDS011;62991;50.040;18.400;2022-09-25T08:15:12;16.88;;;7.35;;
74510;SDS011;62991;50.040;18.400;2022-09-25T08:18:13;14.13;;;6.82;;
74510;SDS011;62991;50.040;18.400;2022-09-25T08:21:15;16.95;;;7.57;;
74510;SDS011;62991;50.040;18.400;2022-09-25T08:24:17;14.95;;;6.68;;
74510;SDS011;62991;50.040;18.400;2022-09-25T08:27:18;14.13;;;7.47;;
74510;SDS011;62991;50.040;18.400;2022-09-25T08:30:19;12.73;;;6.68;;
74510;SDS011;62991;50.040;18.400;2022-09-25T08:33:20;14.13;;;7.00;;
74510;SDS011;62991;50.040;18.400;2022-09-25T08:36:21;15.00;;;6.78;;
74510;SDS011;62991;50.040;18.400;2022-09-25T08:39:22;13.35;;;6.20;;
74510;SDS011;62991;50.040;18.400;2022-09-25T08:42:33;17.30;;;7.75;;
74510;SDS011;62991;50.040;18.400;2022-09-25T08:45:40;14.57;;;6.05;;
74510;SDS011;62991;50.040;18.400;2022-09-25T08:49:02;18.13;;;7.45;;
74510;SDS011;62991;50.040;18.400;2022-09-25T08:52:06;17.40;;;6.82;;
74510;SDS011;62991;50.040;18.400;2022-09-25T08:55:34;17.55;;;7.45;;
74510;SDS011;62991;50.040;18.400;2022-09-25T09:02:25;15.68;;;5.93;;
74510;SDS011;62991;50.040;18.400;2022-09-25T09:05:30;10.85;;;5.57;;
74510;SDS011;62991;50.040;18.400;2022-09-25T09:08:35;10.65;;;5.65;;
74510;SDS011;62991;50.040;18.400;2022-09-25T09:11:43;10.90;;;5.53;;
74510;SDS011;62991;50.040;18.400;2022-09-25T09:14:49;11.65;;;6.20;;
74510;SDS011;62991;50.040;18.400;2022-09-25T09:17:54;13.38;;;5.85;;
74510;SDS011;62991;50.040;18.400;2022-09-25T09:21:00;14.77;;;6.90;;
74510;SDS011;62991;50.040;18.400;2022-09-25T09:24:16;12.75;;;6.13;;
74510;SDS011;62991;50.040;18.400;2022-09-25T09:27:24;12.38;;;6.38;;
74510;SDS011;62991;50.040;18.400;2022-09-25T09:50:43;8.98;;;4.72;;
74510;SDS011;62991;50.040;18.400;2022-09-25T09:56:57;11.38;;;5.72;;
74510;SDS011;62991;50.040;18.400;2022-09-25T10:00:06;9.98;;;5.20;;
74510;SDS011;62991;50.040;18.400;2022-09-25T10:03:24;9.68;;;4.03;;
74510;SDS011;62991;50.040;18.400;2022-09-25T10:06:28;12.45;;;5.22;;
74510;SDS011;62991;50.040;18.400;2022-09-25T10:09:33;10.00;;;5.70;;
74510;SDS011;62991;50.040;18.400;2022-09-25T10:12:36;10.38;;;4.25;;
74510;SDS011;62991;50.040;18.400;2022-09-25T10:15:40;9.32;;;4.55;;
74510;SDS011;62991;50.040;18.400;2022-09-25T10:18:48;9.57;;;4.68;;
74510;SDS011;62991;50.040;18.400;2022-09-25T10:27:54;13.88;;;6.10;;
74510;SDS011;62991;50.040;18.400;2022-09-25T10:30:55;7.45;;;4.40;;
74510;SDS011;62991;50.040;18.400;2022-09-25T10:37:16;9.70;;;4.63;;
74510;SDS011;62991;50.040;18.400;2022-09-25T10:40:22;7.30;;;3.92;;
74510;SDS011;62991;50.040;18.400;2022-09-25T10:43:31;7.03;;;3.92;;
74510;SDS011;62991;50.040;18.400;2022-09-25T10:46:32;8.50;;;4.47;;
74510;SDS011;62991;50.040;18.400;2022-09-25T10:49:53;7.90;;;3.80;;
74510;SDS011;62991;50.040;18.400;2022-09-25T10:53:26;7.78;;;3.72;;
74510;SDS011;62991;50.040;18.400;2022-09-25T10:56:31;5.45;;;3.20;;
74510;SDS011;62991;50.040;18.400;2022-09-25T10:59:34;7.25;;;3.33;;
74510;SDS011;62991;50.040;18.400;2022-09-25T11:02:37;6.18;;;3.10;;
74510;SDS011;62991;50.040;18.400;2022-09-25T11:05:46;8.18;;;4.00;;
74510;SDS011;62991;50.040;18.400;2022-09-25T11:08:55;6.47;;;3.67;;
74510;SDS011;62991;50.040;18.400;2022-09-25T11:12:13;5.57;;;3.13;;
74510;SDS011;62991;50.040;18.400;2022-09-25T11:15:24;10.38;;;4.13;;
74510;SDS011;62991;50.040;18.400;2022-09-25T11:18:40;6.85;;;3.65;;
74510;SDS011;62991;50.040;18.400;2022-09-25T11:22:15;8.55;;;3.88;;
74510;SDS011;62991;50.040;18.400;2022-09-25T11:29:14;10.07;;;4.03;;
74510;SDS011;62991;50.040;18.400;2022-09-25T11:35:40;8.70;;;4.13;;
74510;SDS011;62991;50.040;18.400;2022-09-25T11:38:53;9.10;;;4.50;;
74510;SDS011;62991;50.040;18.400;2022-09-25T11:42:17;6.97;;;4.45;;
74510;SDS011;62991;50.040;18.400;2022-09-25T11:45:29;6.47;;;3.33;;
74510;SDS011;62991;50.040;18.400;2022-09-25T11:52:19;11.60;;;4.72;;
74510;SDS011;62991;50.040;18.400;2022-09-25T11:58:44;9.20;;;4.18;;
74510;SDS011;62991;50.040;18.400;2022-09-25T12:02:15;6.60;;;4.00;;
74510;SDS011;62991;50.040;18.400;2022-09-25T12:13:09;9.13;;;4.10;;
74510;SDS011;62991;50.040;18.400;2022-09-25T12:15:55;6.75;;;3.80;;
74510;SDS011;62991;50.040;18.400;2022-09-25T12:28:42;7.13;;;3.80;;
74510;SDS011;62991;50.040;18.400;2022-09-25T12:42:05;7.20;;;3.67;;
74510;SDS011;62991;50.040;18.400;2022-09-25T12:51:44;4.63;;;2.50;;
74510;SDS011;62991;50.040;18.400;2022-09-25T13:08:49;7.68;;;3.90;;
74510;SDS011;62991;50.040;18.400;2022-09-25T13:12:03;6.38;;;3.40;;
74510;SDS011;62991;50.040;18.400;2022-09-25T13:15:09;8.30;;;3.55;;
74510;SDS011;62991;50.040;18.400;2022-09-25T13:18:21;5.25;;;3.03;;
74510;SDS011;62991;50.040;18.400;2022-09-25T13:21:24;6.55;;;3.63;;
74510;SDS011;62991;50.040;18.400;2022-09-25T13:24:29;5.53;;;3.33;;
74510;SDS011;62991;50.040;18.400;2022-09-25T13:27:42;11.90;;;5.03;;
74510;SDS011;62991;50.040;18.400;2022-09-25T13:34:09;10.73;;;4.25;;
74510;SDS011;62991;50.040;18.400;2022-09-25T13:37:14;7.70;;;3.63;;
74510;SDS011;62991;50.040;18.400;2022-09-25T13:40:16;6.22;;;3.15;;
74510;SDS011;62991;50.040;18.400;2022-09-25T13:47:42;7.20;;;4.00;;
74510;SDS011;62991;50.040;18.400;2022-09-25T14:00:57;6.80;;;3.92;;
74510;SDS011;62991;50.040;18.400;2022-09-25T14:04:00;11.02;;;3.72;;
74510;SDS011;62991;50.040;18.400;2022-09-25T14:07:20;8.40;;;3.60;;
74510;SDS011;62991;50.040;18.400;2022-09-25T14:10:23;8.82;;;4.28;;
74510;SDS011;62991;50.040;18.400;2022-09-25T14:13:26;8.13;;;4.03;;
74510;SDS011;62991;50.040;18.400;2022-09-25T14:16:35;7.25;;;3.97;;
74510;SDS011;62991;50.040;18.400;2022-09-25T14:19:46;8.77;;;3.92;;
74510;SDS011;62991;50.040;18.400;2022-09-25T14:22:53;6.88;;;3.78;;
74510;SDS011;62991;50.040;18.400;2022-09-25T14:25:57;9.30;;;4.30;;
74510;SDS011;62991;50.040;18.400;2022-09-25T14:28:59;10.05;;;4.80;;
74510;SDS011;62991;50.040;18.400;2022-09-25T14:46:10;14.27;;;6.70;;
74510;SDS011;62991;50.040;18.400;2022-09-25T14:51:56;11.73;;;6.07;;
74510;SDS011;62991;50.040;18.400;2022-09-25T14:55:01;12.40;;;5.78;;
74510;SDS011;62991;50.040;18.400;2022-09-25T14:58:05;16.58;;;7.80;;
74510;SDS011;62991;50.040;18.400;2022-09-25T15:01:14;15.93;;;5.55;;
74510;SDS011;62991;50.040;18.400;2022-09-25T15:04:28;12.23;;;5.75;;
74510;SDS011;62991;50.040;18.400;2022-09-25T15:07:31;13.27;;;6.22;;
74510;SDS011;62991;50.040;18.400;2022-09-25T15:10:33;14.05;;;6.32;;
74510;SDS011;62991;50.040;18.400;2022-09-25T15:13:37;16.77;;;6.78;;
74510;SDS011;62991;50.040;18.400;2022-09-25T15:16:38;14.75;;;6.85;;
74510;SDS011;62991;50.040;18.400;2022-09-25T15:20:02;21.77;;;7.60;;
74510;SDS011;62991;50.040;18.400;2022-09-25T15:23:08;12.95;;;6.38;;
74510;SDS011;62991;50.040;18.400;2022-09-25T15:26:15;13.77;;;6.20;;
74510;SDS011;62991;50.040;18.400;2022-09-25T15:29:19;12.38;;;5.55;;
74510;SDS011;62991;50.040;18.400;2022-09-25T15:32:25;14.48;;;5.53;;
74510;SDS011;62991;50.040;18.400;2022-09-25T15:35:30;12.40;;;5.43;;
74510;SDS011;62991;50.040;18.400;2022-09-25T15:38:32;13.82;;;5.85;;
74510;SDS011;62991;50.040;18.400;2022-09-25T15:41:34;10.77;;;5.68;;
74510;SDS011;62991;50.040;18.400;2022-09-25T15:44:35;9.02;;;5.00;;
74510;SDS011;62991;50.040;18.400;2022-09-25T15:50:36;21.20;;;7.95;;
74510;SDS011;62991;50.040;18.400;2022-09-25T15:53:44;13.32;;;6.68;;
74510;SDS011;62991;50.040;18.400;2022-09-25T15:56:54;19.90;;;8.45;;
74510;SDS011;62991;50.040;18.400;2022-09-25T15:59:56;15.95;;;6.78;;
74510;SDS011;62991;50.040;18.400;2022-09-25T16:03:22;17.40;;;7.43;;
74510;SDS011;62991;50.040;18.400;2022-09-25T16:06:44;20.83;;;7.63;;
74510;SDS011;62991;50.040;18.400;2022-09-25T16:09:45;22.88;;;8.20;;
74510;SDS011;62991;50.040;18.400;2022-09-25T16:12:47;24.70;;;9.68;;
74510;SDS011;62991;50.040;18.400;2022-09-25T16:15:52;19.50;;;8.20;;
74510;SDS011;62991;50.040;18.400;2022-09-25T16:18:56;34.00;;;11.88;;
74510;SDS011;62991;50.040;18.400;2022-09-25T16:22:18;35.33;;;12.57;;
74510;SDS011;62991;50.040;18.400;2022-09-25T16:25:26;33.65;;;12.85;;
74510;SDS011;62991;50.040;18.400;2022-09-25T16:28:32;15.70;;;7.80;;
74510;SDS011;62991;50.040;18.400;2022-09-25T16:31:34;18.90;;;8.38;;
74510;SDS011;62991;50.040;18.400;2022-09-25T16:34:36;24.02;;;10.32;;
74510;SDS011;62991;50.040;18.400;2022-09-25T16:37:38;48.42;;;18.65;;
74510;SDS011;62991;50.040;18.400;2022-09-25T16:40:39;33.25;;;14.52;;
74510;SDS011;62991;50.040;18.400;2022-09-25T16:43:40;23.33;;;9.63;;
74510;SDS011;62991;50.040;18.400;2022-09-25T16:46:41;34.33;;;12.35;;
74510;SDS011;62991;50.040;18.400;2022-09-25T16:49:43;21.85;;;8.73;;
74510;SDS011;62991;50.040;18.400;2022-09-25T16:52:44;21.48;;;9.30;;
74510;SDS011;62991;50.040;18.400;2022-09-25T16:55:46;38.97;;;13.27;;
74510;SDS011;62991;50.040;18.400;2022-09-25T16:58:52;26.73;;;9.85;;
74510;SDS011;62991;50.040;18.400;2022-09-25T17:01:54;38.35;;;13.25;;
74510;SDS011;62991;50.040;18.400;2022-09-25T17:05:02;42.38;;;19.42;;
74510;SDS011;62991;50.040;18.400;2022-09-25T17:08:18;43.47;;;18.70;;
74510;SDS011;62991;50.040;18.400;2022-09-25T17:11:20;46.47;;;19.35;;
74510;SDS011;62991;50.040;18.400;2022-09-25T17:14:22;38.88;;;13.55;;
74510;SDS011;62991;50.040;18.400;2022-09-25T17:17:25;34.05;;;13.50;;
74510;SDS011;62991;50.040;18.400;2022-09-25T17:20:27;45.10;;;16.80;;
74510;SDS011;62991;50.040;18.400;2022-09-25T17:23:30;60.47;;;19.42;;
74510;SDS011;62991;50.040;18.400;2022-09-25T17:26:30;46.25;;;18.02;;
74510;SDS011;62991;50.040;18.400;2022-09-25T17:29:31;41.28;;;16.23;;
74510;SDS011;62991;50.040;18.400;2022-09-25T17:32:32;32.90;;;13.55;;
74510;SDS011;62991;50.040;18.400;2022-09-25T17:35:37;32.22;;;15.65;;
74510;SDS011;62991;50.040;18.400;2022-09-25T17:38:41;39.63;;;17.05;;
74510;SDS011;62991;50.040;18.400;2022-09-25T17:41:42;41.05;;;18.13;;
74510;SDS011;62991;50.040;18.400;2022-09-25T17:44:43;30.73;;;15.38;;
74510;SDS011;62991;50.040;18.400;2022-09-25T17:47:46;17.70;;;8.98;;
74510;SDS011;62991;50.040;18.400;2022-09-25T17:50:47;57.85;;;19.67;;
74510;SDS011;62991;50.040;18.400;2022-09-25T17:53:48;55.95;;;21.30;;
74510;SDS011;62991;50.040;18.400;2022-09-25T17:56:48;50.47;;;18.80;;
74510;SDS011;62991;50.040;18.400;2022-09-25T17:59:49;50.97;;;18.42;;
74510;SDS011;62991;50.040;18.400;2022-09-25T18:02:50;42.85;;;15.90;;
74510;SDS011;62991;50.040;18.400;2022-09-25T18:05:51;30.58;;;13.23;;
74510;SDS011;62991;50.040;18.400;2022-09-25T18:08:52;32.30;;;13.13;;
74510;SDS011;62991;50.040;18.400;2022-09-25T18:11:54;33.88;;;15.05;;
74510;SDS011;62991;50.040;18.400;2022-09-25T18:14:55;36.13;;;15.25;;
74510;SDS011;62991;50.040;18.400;2022-09-25T18:17:55;39.28;;;14.65;;
74510;SDS011;62991;50.040;18.400;2022-09-25T18:20:56;40.00;;;15.82;;
74510;SDS011;62991;50.040;18.400;2022-09-25T18:24:15;42.50;;;15.82;;
74510;SDS011;62991;50.040;18.400;2022-09-25T18:27:16;33.20;;;13.65;;
74510;SDS011;62991;50.040;18.400;2022-09-25T18:30:18;38.95;;;15.93;;
74510;SDS011;62991;50.040;18.400;2022-09-25T18:33:22;64.35;;;23.52;;
74510;SDS011;62991;50.040;18.400;2022-09-25T18:36:24;40.45;;;17.30;;
74510;SDS011;62991;50.040;18.400;2022-09-25T18:39:25;42.75;;;18.10;;
74510;SDS011;62991;50.040;18.400;2022-09-25T18:42:25;41.03;;;18.02;;
74510;SDS011;62991;50.040;18.400;2022-09-25T18:45:26;57.85;;;21.85;;
74510;SDS011;62991;50.040;18.400;2022-09-25T18:48:27;34.15;;;13.13;;
74510;SDS011;62991;50.040;18.400;2022-09-25T18:51:28;26.58;;;12.35;;
74510;SDS011;62991;50.040;18.400;2022-09-25T18:54:29;27.35;;;11.15;;
74510;SDS011;62991;50.040;18.400;2022-09-25T18:57:29;29.00;;;11.68;;
74510;SDS011;62991;50.040;18.400;2022-09-25T19:00:31;23.45;;;10.95;;
74510;SDS011;62991;50.040;18.400;2022-09-25T19:03:32;25.30;;;11.25;;
74510;SDS011;62991;50.040;18.400;2022-09-25T19:06:33;28.00;;;12.00;;
74510;SDS011;62991;50.040;18.400;2022-09-25T19:09:34;26.55;;;11.80;;
74510;SDS011;62991;50.040;18.400;2022-09-25T19:12:34;39.70;;;15.52;;
74510;SDS011;62991;50.040;18.400;2022-09-25T19:15:35;43.78;;;14.45;;
74510;SDS011;62991;50.040;18.400;2022-09-25T19:18:36;36.97;;;14.40;;
74510;SDS011;62991;50.040;18.400;2022-09-25T19:21:37;38.10;;;14.98;;
74510;SDS011;62991;50.040;18.400;2022-09-25T19:24:40;38.88;;;14.77;;
74510;SDS011;62991;50.040;18.400;2022-09-25T19:27:46;45.80;;;16.67;;
74510;SDS011;62991;50.040;18.400;2022-09-25T19:30:53;48.35;;;16.23;;
74510;SDS011;62991;50.040;18.400;2022-09-25T19:33:56;35.67;;;14.13;;
74510;SDS011;62991;50.040;18.400;2022-09-25T19:36:57;40.17;;;16.42;;
74510;SDS011;62991;50.040;18.400;2022-09-25T19:39:59;41.63;;;15.98;;
74510;SDS011;62991;50.040;18.400;2022-09-25T19:43:18;41.65;;;16.23;;
74510;SDS011;62991;50.040;18.400;2022-09-25T19:46:19;29.27;;;14.20;;
74510;SDS011;62991;50.040;18.400;2022-09-25T19:49:19;53.38;;;20.27;;
74510;SDS011;62991;50.040;18.400;2022-09-25T19:52:20;73.32;;;27.20;;
74510;SDS011;62991;50.040;18.400;2022-09-25T19:55:21;69.03;;;23.73;;
74510;SDS011;62991;50.040;18.400;2022-09-25T19:58:22;72.57;;;25.05;;
74510;SDS011;62991;50.040;18.400;2022-09-25T20:01:23;59.78;;;23.20;;
74510;SDS011;62991;50.040;18.400;2022-09-25T20:04:26;70.40;;;27.55;;
74510;SDS011;62991;50.040;18.400;2022-09-25T20:07:27;56.10;;;21.55;;
74510;SDS011;62991;50.040;18.400;2022-09-25T20:10:28;41.92;;;16.88;;
74510;SDS011;62991;50.040;18.400;2022-09-25T20:13:28;39.70;;;16.50;;
74510;SDS011;62991;50.040;18.400;2022-09-25T20:16:29;36.35;;;14.60;;
74510;SDS011;62991;50.040;18.400;2022-09-25T20:19:31;44.20;;;17.23;;
74510;SDS011;62991;50.040;18.400;2022-09-25T20:22:31;43.88;;;17.98;;
74510;SDS011;62991;50.040;18.400;2022-09-25T20:25:32;33.65;;;14.95;;
74510;SDS011;62991;50.040;18.400;2022-09-25T20:28:33;44.92;;;16.67;;
74510;SDS011;62991;50.040;18.400;2022-09-25T20:31:36;36.70;;;13.80;;
74510;SDS011;62991;50.040;18.400;2022-09-25T20:34:38;35.45;;;13.82;;
74510;SDS011;62991;50.040;18.400;2022-09-25T20:37:38;34.25;;;12.55;;
74510;SDS011;62991;50.040;18.400;2022-09-25T20:40:39;24.98;;;11.63;;
74510;SDS011;62991;50.040;18.400;2022-09-25T20:43:40;21.02;;;9.45;;